Time;durP1;ratioP1;P1;durP2;ratioP2;P2;SDS_P1;SDS_P2;PMS_P1;PMS_P2;Temp;Humidity;BMP_temperature;BMP_pressure;BME280_temperature;BME280_humidity;BME280_pressure;Samples;Min_cycle;Max_cycle;Signal;HPM_P1;HPM_P2
2022/04/28 03:02:09;;;;;;;13.90;6.53;;;7.00;99.90;;;;;;5236858;23;20481;-81
2022/04/28 03:04:35;;;;;;;16.88;7.05;;;7.00;99.90;;;;;;5016172;28;20066;-80
2022/04/28 03:12:29;;;;;;;16.38;5.95;;;7.10;99.90;;;;;;5015985;28;20050;-81
2022/04/28 03:14:54;;;;;;;16.02;6.75;;;7.00;99.90;;;;;;5015981;28;20103;-80
2022/04/28 03:17:20;;;;;;;13.50;7.05;;;7.00;99.90;;;;;;5015595;28;20398;-81
2022/04/28 03:19:45;;;;;;;11.45;5.55;;;7.10;99.90;;;;;;5015795;28;20137;-81
2022/04/28 03:22:11;;;;;;;15.88;5.28;;;7.10;99.90;;;;;;5016136;28;20049;-81
2022/04/28 03:24:36;;;;;;;12.20;5.70;;;7.10;99.90;;;;;;5017024;28;20496;-81
2022/04/28 03:27:02;;;;;;;12.40;5.47;;;7.10;99.90;;;;;;5015645;28;20397;-81
2022/04/28 03:29:28;;;;;;;17.35;5.65;;;7.10;99.90;;;;;;5015477;28;20133;-82
2022/04/28 03:31:53;;;;;;;12.75;5.40;;;7.20;99.90;;;;;;5016049;28;20046;-81
2022/04/28 03:34:23;;;;;;;10.82;5.03;;;7.20;99.90;;;;;;5015492;28;20042;-79
2022/04/28 03:36:51;;;;;;;12.65;4.95;;;7.20;99.90;;;;;;4999197;28;20044;-81
2022/04/28 03:39:18;;;;;;;13.63;5.03;;;7.20;99.90;;;;;;5015487;28;20049;-81
2022/04/28 03:41:44;;;;;;;12.73;6.22;;;7.20;99.90;;;;;;5015580;28;20356;-82
2022/04/28 03:44:09;;;;;;;13.65;5.53;;;7.20;99.90;;;;;;5016753;28;20088;-81
2022/04/28 03:46:35;;;;;;;11.10;5.85;;;7.20;99.90;;;;;;5015342;28;20034;-81
2022/04/28 03:49:02;;;;;;;12.95;5.30;;;7.20;99.90;;;;;;5015194;28;20037;-80
2022/04/28 03:51:27;;;;;;;11.55;5.55;;;7.20;99.90;;;;;;5016375;28;20058;-82
2022/04/28 03:53:53;;;;;;;14.60;6.10;;;7.20;99.90;;;;;;5015520;28;20104;-82
2022/04/28 03:56:18;;;;;;;11.55;5.25;;;7.20;99.90;;;;;;4999480;28;20092;-81
2022/04/28 03:58:45;;;;;;;11.65;5.53;;;7.20;99.90;;;;;;5015999;28;20049;-82
2022/04/28 04:01:11;;;;;;;10.75;5.35;;;7.20;99.90;;;;;;4998911;28;20425;-81
2022/04/28 04:03:36;;;;;;;12.63;5.88;;;7.20;99.90;;;;;;5015129;28;20038;-81
2022/04/28 04:06:02;;;;;;;10.45;5.57;;;7.20;99.90;;;;;;5014790;28;20049;-81
2022/04/28 04:08:27;;;;;;;15.00;5.57;;;7.20;99.90;;;;;;5014948;28;20046;-81
2022/04/28 04:10:53;;;;;;;15.68;6.68;;;7.30;99.90;;;;;;5014886;28;20061;-82
2022/04/28 04:13:19;;;;;;;12.95;5.55;;;7.30;99.90;;;;;;5014779;28;20085;-81
2022/04/28 04:15:45;;;;;;;11.85;5.60;;;7.30;99.90;;;;;;5020763;28;20478;-82
2022/04/28 04:18:12;;;;;;;13.90;6.30;;;7.30;99.90;;;;;;5013099;28;20096;-78
2022/04/28 04:20:38;;;;;;;12.18;5.57;;;7.30;99.90;;;;;;5017043;28;20044;-82
2022/04/28 04:23:05;;;;;;;18.17;6.18;;;7.30;99.90;;;;;;5015861;28;20125;-81
2022/04/28 04:25:31;;;;;;;15.10;6.32;;;7.30;99.90;;;;;;5014733;28;20545;-81
2022/04/28 04:27:56;;;;;;;15.15;5.70;;;7.30;99.90;;;;;;5014841;28;20092;-80
2022/04/28 04:33:06;;;;;;;12.50;5.97;;;7.30;99.90;;;;;;5015594;28;20045;-81
2022/04/28 04:35:32;;;;;;;15.35;6.35;;;7.30;99.90;;;;;;5014583;28;20044;-81
2022/04/28 04:37:57;;;;;;;13.55;6.07;;;7.30;99.90;;;;;;5014319;28;20042;-82
2022/04/28 04:40:23;;;;;;;15.50;5.85;;;7.30;99.90;;;;;;5014279;28;20406;-81
2022/04/28 04:42:48;;;;;;;18.33;6.47;;;7.30;99.90;;;;;;5014187;28;20038;-79
2022/04/28 04:45:14;;;;;;;16.85;6.05;;;7.30;99.90;;;;;;5015704;28;20126;-80
2022/04/28 04:47:40;;;;;;;14.05;6.68;;;7.30;99.90;;;;;;5014340;28;20544;-81
2022/04/28 04:50:07;;;;;;;12.25;6.03;;;7.40;99.90;;;;;;5014578;28;20184;-80
2022/04/28 04:52:34;;;;;;;14.73;5.97;;;7.40;99.90;;;;;;5014038;28;20169;-81
2022/04/28 04:55:00;;;;;;;16.63;6.85;;;7.40;99.90;;;;;;5014006;28;20099;-80
2022/04/28 04:57:26;;;;;;;16.13;5.90;;;7.40;99.90;;;;;;5013983;28;20125;-81
2022/04/28 04:59:52;;;;;;;11.07;5.80;;;7.50;99.90;;;;;;5014124;28;20049;-81
2022/04/28 05:02:17;;;;;;;13.38;6.00;;;7.50;99.90;;;;;;5013894;28;20053;-81
2022/04/28 05:04:43;;;;;;;11.85;5.35;;;7.50;99.90;;;;;;5013820;28;20034;-80
2022/04/28 05:07:09;;;;;;;12.38;5.13;;;7.50;99.90;;;;;;5013628;28;20077;-79
2022/04/28 05:09:35;;;;;;;13.18;5.82;;;7.50;99.90;;;;;;5015192;28;20049;-81
2022/04/28 05:12:01;;;;;;;13.88;5.80;;;7.60;99.90;;;;;;5013775;28;20050;-81
2022/04/28 05:14:26;;;;;;;11.82;6.20;;;7.60;99.90;;;;;;5015273;28;20048;-82
2022/04/28 05:16:53;;;;;;;14.52;6.47;;;7.60;99.90;;;;;;5015380;28;20038;-82
2022/04/28 05:19:18;;;;;;;12.30;6.25;;;7.60;99.90;;;;;;5014962;28;20560;-82
2022/04/28 05:21:44;;;;;;;15.27;6.35;;;7.60;99.90;;;;;;5013151;28;20085;-80
2022/04/28 05:24:10;;;;;;;13.18;6.07;;;7.70;99.90;;;;;;5013973;28;20452;-81
2022/04/28 05:26:36;;;;;;;15.10;5.82;;;7.70;99.90;;;;;;5013668;28;20196;-82
2022/04/28 05:29:01;;;;;;;10.73;5.45;;;7.80;99.90;;;;;;5013879;28;20507;-80
2022/04/28 05:31:27;;;;;;;17.63;6.38;;;7.80;99.90;;;;;;5013330;28;20049;-81
2022/04/28 05:33:53;;;;;;;14.45;6.30;;;7.80;99.90;;;;;;5013814;28;20041;-80
2022/04/28 05:36:18;;;;;;;13.52;5.82;;;7.80;99.90;;;;;;5013551;28;20041;-81
2022/04/28 05:38:44;;;;;;;13.98;5.57;;;7.80;99.90;;;;;;5013739;28;20049;-82
2022/04/28 05:41:10;;;;;;;15.93;6.03;;;7.90;99.90;;;;;;5014950;28;20070;-82
2022/04/28 05:46:21;;;;;;;13.23;6.05;;;7.90;99.90;;;;;;5013781;28;20041;-82
2022/04/28 05:48:47;;;;;;;12.57;5.72;;;7.90;99.90;;;;;;5013403;28;20474;-80
2022/04/28 05:51:13;;;;;;;14.93;6.35;;;7.80;99.90;;;;;;5014790;28;20080;-82
2022/04/28 05:53:39;;;;;;;10.23;5.43;;;7.90;99.90;;;;;;5012965;28;20038;-79
2022/04/28 05:56:05;;;;;;;10.35;5.97;;;7.90;99.90;;;;;;5015317;28;20041;-81
2022/04/28 05:58:32;;;;;;;15.18;5.95;;;8.00;99.90;;;;;;5012963;28;20046;-80
2022/04/28 06:00:58;;;;;;;17.67;6.18;;;8.00;99.90;;;;;;5013489;28;20335;-79
2022/04/28 06:03:24;;;;;;;13.68;5.60;;;8.00;99.90;;;;;;5013341;28;20056;-82
2022/04/28 06:05:50;;;;;;;15.20;5.88;;;8.10;99.90;;;;;;5013137;28;20454;-80
2022/04/28 06:08:15;;;;;;;13.52;5.57;;;8.10;99.90;;;;;;5013298;28;20053;-81
2022/04/28 06:10:41;;;;;;;12.25;5.85;;;8.10;99.90;;;;;;5012658;28;20038;-82
2022/04/28 06:13:07;;;;;;;14.55;6.20;;;8.20;99.90;;;;;;5014595;28;20394;-80
2022/04/28 06:15:33;;;;;;;17.48;6.43;;;8.20;99.90;;;;;;4996663;28;20536;-82
2022/04/28 06:17:58;;;;;;;13.30;5.75;;;8.20;99.90;;;;;;5014212;28;20121;-82
2022/04/28 06:20:24;;;;;;;14.07;5.93;;;8.20;99.90;;;;;;5014226;28;20160;-82
2022/04/28 06:22:50;;;;;;;12.00;5.97;;;8.30;99.90;;;;;;5013807;28;20081;-80
2022/04/28 06:25:15;;;;;;;12.90;5.70;;;8.30;99.90;;;;;;5012386;28;20422;-82
2022/04/28 06:27:41;;;;;;;13.55;6.57;;;8.40;99.90;;;;;;5013305;28;20050;-82
2022/04/28 06:30:07;;;;;;;12.32;5.47;;;8.40;99.90;;;;;;5012961;28;20073;-82
2022/04/28 06:32:33;;;;;;;13.10;5.93;;;8.40;99.90;;;;;;4996504;28;20478;-82
2022/04/28 06:34:59;;;;;;;13.93;5.57;;;8.50;99.90;;;;;;5014631;28;20057;-82
2022/04/28 06:37:25;;;;;;;13.30;5.88;;;8.50;99.90;;;;;;5016721;28;20402;-81
2022/04/28 06:39:50;;;;;;;18.30;5.30;;;8.50;99.90;;;;;;5016511;28;20066;-82
2022/04/28 06:42:16;;;;;;;10.13;5.00;;;8.60;99.90;;;;;;5016736;28;20098;-82
2022/04/28 06:44:42;;;;;;;15.88;5.50;;;8.60;99.90;;;;;;5017871;28;20473;-81
2022/04/28 06:47:07;;;;;;;15.48;5.95;;;8.70;99.90;;;;;;5018597;28;20033;-81
2022/04/28 06:49:33;;;;;;;15.40;5.85;;;8.80;99.90;;;;;;5016390;28;20052;-81
2022/04/28 06:51:59;;;;;;;11.70;5.55;;;8.90;99.90;;;;;;5016387;28;20042;-82
2022/04/28 06:54:25;;;;;;;11.55;5.45;;;8.90;99.90;;;;;;5016642;28;20060;-83
2022/04/28 06:56:50;;;;;;;9.50;5.40;;;9.00;99.90;;;;;;5016315;28;20065;-82
2022/04/28 06:59:16;;;;;;;14.40;5.25;;;9.10;99.90;;;;;;5017889;28;20492;-82
2022/04/28 07:01:43;;;;;;;11.85;5.35;;;9.10;99.90;;;;;;5016527;28;20045;-79
2022/04/28 07:04:08;;;;;;;14.50;5.55;;;9.10;99.90;;;;;;5016532;28;20050;-81
2022/04/28 07:06:34;;;;;;;13.73;5.70;;;9.20;99.90;;;;;;5016300;28;20045;-82
2022/04/28 07:09:00;;;;;;;13.10;5.00;;;9.30;99.90;;;;;;5016464;28;20077;-80
2022/04/28 07:11:25;;;;;;;15.60;6.43;;;9.40;99.90;;;;;;5015934;28;20500;-80
2022/04/28 07:13:52;;;;;;;13.68;5.20;;;9.40;99.90;;;;;;5015998;28;20096;-81
2022/04/28 07:16:18;;;;;;;14.48;5.03;;;9.50;99.90;;;;;;5016652;28;20429;-82
2022/04/28 07:18:43;;;;;;;12.20;4.85;;;9.60;99.90;;;;;;5017417;28;20081;-82
2022/04/28 07:21:09;;;;;;;10.15;4.50;;;9.70;99.90;;;;;;5017653;28;20085;-82
2022/04/28 07:23:35;;;;;;;14.05;5.10;;;9.80;99.90;;;;;;5015865;28;20038;-79
2022/04/28 07:26:00;;;;;;;13.23;5.13;;;9.90;99.90;;;;;;5015588;28;20038;-81
2022/04/28 07:28:26;;;;;;;16.80;5.47;;;10.00;99.90;;;;;;5015929;28;20042;-83
2022/04/28 07:30:51;;;;;;;11.68;4.82;;;10.10;99.90;;;;;;5015948;28;20045;-83
2022/04/28 07:33:17;;;;;;;15.88;4.90;;;10.20;99.90;;;;;;5016169;28;20081;-82
2022/04/28 07:35:43;;;;;;;11.60;5.15;;;10.30;99.90;;;;;;5015534;28;20045;-78
2022/04/28 07:38:08;;;;;;;12.23;4.97;;;10.30;99.90;;;;;;5015827;28;20046;-82
2022/04/28 07:40:35;;;;;;;15.00;4.80;;;10.50;99.90;;;;;;5015549;28;20153;-82
2022/04/28 07:43:01;;;;;;;9.48;4.45;;;10.50;99.90;;;;;;4999171;28;20037;-82
2022/04/28 07:45:27;;;;;;;10.88;4.18;;;10.60;99.90;;;;;;5015072;28;20041;-82
2022/04/28 07:47:54;;;;;;;10.23;4.82;;;10.70;99.90;;;;;;5015574;28;20125;-83
2022/04/28 07:50:21;;;;;;;9.32;4.45;;;10.80;99.90;;;;;;5015845;28;20100;-82
2022/04/28 07:52:47;;;;;;;9.48;3.50;;;10.90;99.90;;;;;;5016391;28;20045;-81
2022/04/28 07:55:13;;;;;;;21.55;3.88;;;11.00;99.90;;;;;;5015724;28;20112;-83
2022/04/28 07:57:39;;;;;;;10.90;4.10;;;10.90;99.90;;;;;;5017087;28;20108;-82
2022/04/28 08:00:06;;;;;;;9.32;3.67;;;11.00;99.90;;;;;;5015054;28;20054;-79
2022/04/28 08:02:32;;;;;;;9.52;2.85;;;11.10;99.90;;;;;;5015340;28;20046;-83
2022/04/28 08:04:58;;;;;;;8.50;3.22;;;11.10;99.90;;;;;;5016616;28;20038;-82
2022/04/28 08:07:24;;;;;;;8.10;2.92;;;11.20;99.90;;;;;;5016871;28;20460;-81
2022/04/28 08:09:51;;;;;;;7.72;3.10;;;11.40;99.90;;;;;;4999773;28;20068;-81
2022/04/28 08:12:17;;;;;;;8.45;2.92;;;11.50;99.90;;;;;;5015596;28;20042;-80
2022/04/28 08:14:43;;;;;;;9.10;3.35;;;11.60;99.90;;;;;;5015282;28;20553;-82
2022/04/28 08:17:08;;;;;;;7.80;2.63;;;11.60;99.90;;;;;;4998628;28;20450;-81
2022/04/28 08:19:34;;;;;;;12.02;3.17;;;11.60;99.90;;;;;;5015217;28;20050;-83
2022/04/28 08:22:00;;;;;;;10.75;3.58;;;11.60;99.90;;;;;;5015005;28;20052;-82
2022/04/28 08:24:25;;;;;;;8.98;3.38;;;11.50;99.90;;;;;;5015226;28;20041;-79
2022/04/28 08:26:52;;;;;;;12.18;3.88;;;11.60;99.90;;;;;;5017503;28;20034;-81
2022/04/28 08:29:18;;;;;;;13.25;3.90;;;11.60;99.90;;;;;;5021387;28;20053;-81
2022/04/28 08:31:44;;;;;;;13.15;3.72;;;11.60;99.90;;;;;;5023771;28;20049;-81
2022/04/28 08:34:14;;;;;;;12.38;3.65;;;11.60;99.90;;;;;;5021833;28;20128;-81
2022/04/28 08:36:41;;;;;;;12.93;3.50;;;11.60;99.90;;;;;;5018201;28;20119;-83
2022/04/28 08:39:07;;;;;;;7.68;3.33;;;11.50;99.90;;;;;;5015483;28;20504;-82
2022/04/28 08:41:38;;;;;;;9.18;3.47;;;11.50;99.90;;;;;;5016568;28;20034;-81
2022/04/28 08:44:05;;;;;;;9.80;3.70;;;11.50;99.90;;;;;;5015434;28;20377;-81
2022/04/28 08:49:27;;;;;;;10.37;3.53;;;11.50;99.90;;;;;;5014717;28;20046;-81
2022/04/28 08:51:56;;;;;;;10.85;3.63;;;11.50;99.90;;;;;;5014577;28;20046;-81
2022/04/28 08:54:24;;;;;;;9.90;3.05;;;11.50;99.90;;;;;;5016178;28;20038;-81
2022/04/28 08:56:52;;;;;;;7.68;3.40;;;11.50;99.90;;;;;;5014280;28;20405;-81
2022/04/28 08:59:19;;;;;;;9.77;3.30;;;11.50;99.90;;;;;;5014253;28;20131;-82
2022/04/28 09:01:44;;;;;;;10.35;3.92;;;11.60;99.90;;;;;;5014442;28;20494;-80
2022/04/28 09:04:11;;;;;;;7.95;2.92;;;11.60;99.90;;;;;;5014456;28;20085;-83
2022/04/28 09:06:41;;;;;;;11.55;3.33;;;11.70;99.90;;;;;;5015475;28;20038;-82
2022/04/28 09:09:10;;;;;;;9.90;3.40;;;11.80;99.90;;;;;;5013918;28;20061;-78
2022/04/28 09:11:39;;;;;;;6.63;3.50;;;11.90;99.90;;;;;;5015176;28;20432;-82
2022/04/28 09:14:20;;;;;;;7.53;2.83;;;12.00;99.90;;;;;;5014258;28;20084;-82
2022/04/28 09:16:53;;;;;;;8.50;3.15;;;12.00;99.90;;;;;;5015667;28;20324;-82
2022/04/28 09:19:24;;;;;;;8.02;2.80;;;12.10;99.90;;;;;;5015613;28;20155;-81
2022/04/28 09:21:55;;;;;;;8.95;3.13;;;12.20;99.90;;;;;;5014514;28;20037;-82
2022/04/28 09:24:22;;;;;;;8.13;3.00;;;12.20;99.90;;;;;;5015882;28;20048;-82
2022/04/28 09:26:50;;;;;;;10.63;2.50;;;12.30;99.90;;;;;;5013641;28;20048;-80
2022/04/28 09:29:18;;;;;;;6.72;2.42;;;12.40;99.90;;;;;;5014932;28;20512;-79
2022/04/28 09:31:48;;;;;;;12.77;3.22;;;12.50;99.90;;;;;;5014399;28;20421;-83
2022/04/28 09:34:19;;;;;;;10.82;2.60;;;12.60;99.90;;;;;;5013887;28;20037;-79
2022/04/28 09:36:45;;;;;;;10.82;2.65;;;12.60;99.90;;;;;;5015688;28;20053;-80
2022/04/28 09:44:56;;;;;;;12.23;2.33;;;12.90;99.90;;;;;;5013874;28;20050;-80
2022/04/28 09:47:23;;;;;;;8.05;2.10;;;12.90;99.90;;;;;;5014187;28;20041;-81
2022/04/28 09:49:52;;;;;;;11.13;3.05;;;13.00;99.90;;;;;;4997291;28;20145;-83
2022/04/28 09:52:24;;;;;;;16.52;3.10;;;13.10;99.90;;;;;;5015596;28;20041;-81
2022/04/28 09:54:54;;;;;;;10.00;2.08;;;13.20;99.90;;;;;;5013513;28;20485;-81
2022/04/28 09:57:21;;;;;;;7.72;2.05;;;13.30;99.90;;;;;;5013718;28;20108;-82
2022/04/28 09:59:47;;;;;;;10.02;2.83;;;13.20;99.90;;;;;;5013921;28;20041;-82
2022/04/28 10:02:17;;;;;;;10.13;2.05;;;13.30;99.90;;;;;;5014837;28;20069;-80
2022/04/28 10:04:43;;;;;;;10.63;1.95;;;13.30;99.90;;;;;;5014089;28;20042;-80
2022/04/28 10:07:09;;;;;;;9.93;2.35;;;13.20;99.90;;;;;;5013665;28;20042;-82
2022/04/28 10:09:36;;;;;;;8.55;1.90;;;13.20;99.90;;;;;;5012794;28;20046;-80
2022/04/28 10:12:05;;;;;;;9.85;2.00;;;13.30;99.90;;;;;;5013203;28;20046;-80
2022/04/28 10:14:34;;;;;;;6.93;1.80;;;13.40;99.90;;;;;;5012355;28;20046;-81
2022/04/28 10:17:01;;;;;;;6.18;1.67;;;13.60;99.90;;;;;;5012522;28;20038;-83
2022/04/28 10:19:34;;;;;;;11.38;2.78;;;13.80;99.90;;;;;;4996727;28;20371;-81
2022/04/28 10:22:08;;;;;;;11.75;2.15;;;14.20;99.90;;;;;;5012377;28;20127;-82
2022/04/28 10:33:03;;;;;;;7.77;1.77;;;15.10;99.90;;;;;;5012367;28;20050;-82
2022/04/28 10:35:38;;;;;;;9.95;2.47;;;15.10;99.90;;;;;;4996084;28;20288;-81
2022/04/28 10:38:20;;;;;;;8.73;2.58;;;15.00;99.90;;;;;;5012205;28;20042;-82
2022/04/28 10:40:58;;;;;;;11.55;2.40;;;15.00;99.90;;;;;;5012495;28;20050;-82
2022/04/28 10:43:33;;;;;;;10.30;2.30;;;15.10;99.90;;;;;;5012920;28;20474;-82
2022/04/28 10:46:22;;;;;;;7.40;1.80;;;15.30;99.90;;;;;;5012328;28;20038;-81
2022/04/28 10:48:53;;;;;;;8.30;1.80;;;15.40;99.90;;;;;;5012669;28;20046;-81
2022/04/28 10:51:20;;;;;;;8.07;2.10;;;15.50;99.90;;;;;;5012915;28;20391;-82
2022/04/28 10:54:11;;;;;;;10.05;2.05;;;15.30;99.90;;;;;;5013980;28;20386;-81
2022/04/28 10:56:48;;;;;;;6.30;1.77;;;15.30;99.90;;;;;;5012797;28;20069;-81
2022/04/28 10:59:34;;;;;;;7.55;1.90;;;15.10;99.90;;;;;;5012818;28;20596;-82
2022/04/28 11:02:13;;;;;;;9.20;1.88;;;15.20;99.90;;;;;;4996418;28;20048;-83
2022/04/28 11:05:01;;;;;;;9.90;2.08;;;15.30;99.90;;;;;;5012228;28;20513;-81
2022/04/28 11:07:29;;;;;;;7.57;1.75;;;15.20;99.90;;;;;;5012446;28;20049;-81
2022/04/28 11:10:03;;;;;;;7.75;1.83;;;15.20;99.90;;;;;;5012188;28;20041;-80
2022/04/28 11:12:34;;;;;;;8.60;2.35;;;15.30;99.90;;;;;;4996403;28;20390;-83
2022/04/28 11:15:03;;;;;;;7.82;2.50;;;15.50;99.90;;;;;;5013521;28;20482;-80
2022/04/28 11:17:30;;;;;;;6.53;1.70;;;15.50;99.90;;;;;;5012419;28;20050;-83
2022/04/28 11:20:00;;;;;;;7.47;2.10;;;15.40;99.90;;;;;;5012363;28;20072;-80
2022/04/28 11:22:28;;;;;;;6.43;2.25;;;15.30;99.90;;;;;;4999425;28;20037;-81
2022/04/28 11:24:54;;;;;;;9.80;2.60;;;15.40;99.90;;;;;;5015743;28;20521;-84
2022/04/28 11:27:25;;;;;;;9.02;2.50;;;15.70;99.90;;;;;;5016370;28;20041;-83
2022/04/28 11:29:55;;;;;;;9.73;2.55;;;16.00;99.90;;;;;;5016227;28;20046;-82
2022/04/28 11:32:21;;;;;;;9.48;2.42;;;16.10;99.90;;;;;;5017700;28;20056;-83
2022/04/28 11:34:48;;;;;;;8.50;2.35;;;16.10;99.90;;;;;;4999675;28;20120;-82
2022/04/28 11:37:14;;;;;;;10.75;2.70;;;15.90;99.90;;;;;;5017276;28;20037;-82
2022/04/28 11:39:42;;;;;;;7.45;2.40;;;15.80;99.90;;;;;;5015884;28;20387;-82
2022/04/28 11:42:12;;;;;;;7.53;3.08;;;15.70;99.90;;;;;;5015672;28;20041;-83
2022/04/28 11:44:53;;;;;;;10.35;2.90;;;15.80;99.90;;;;;;5015715;28;20048;-83
2022/04/28 11:47:24;;;;;;;9.10;2.45;;;15.90;99.90;;;;;;5015784;28;20033;-83
2022/04/28 11:50:02;;;;;;;5.35;2.42;;;16.20;99.90;;;;;;5015919;28;20378;-82
2022/04/28 11:52:31;;;;;;;14.38;3.53;;;16.20;99.90;;;;;;5016891;28;20049;-84
2022/04/28 11:55:08;;;;;;;8.68;3.25;;;16.10;99.90;;;;;;5015688;28;20131;-81
2022/04/28 11:57:37;;;;;;;12.85;3.40;;;15.90;99.90;;;;;;5015383;28;20048;-81
2022/04/28 12:00:05;;;;;;;9.27;2.67;;;15.70;99.90;;;;;;5015664;28;20053;-81
2022/04/28 12:02:34;;;;;;;9.25;3.10;;;15.60;99.90;;;;;;5014969;28;20490;-82
2022/04/28 12:05:10;;;;;;;9.50;3.10;;;15.60;99.90;;;;;;5015258;28;20042;-81
2022/04/28 12:07:36;;;;;;;9.57;3.33;;;15.80;99.90;;;;;;5015340;28;20042;-80
2022/04/28 12:15:33;;;;;;;12.38;3.45;;;15.80;99.90;;;;;;5016120;28;20313;-83
2022/04/28 12:21:01;;;;;;;9.32;3.42;;;15.50;99.90;;;;;;5016212;28;20046;-80
2022/04/28 12:23:41;;;;;;;12.43;3.78;;;15.40;99.90;;;;;;5016900;28;20038;-85
2022/04/28 12:26:08;;;;;;;10.45;3.97;;;15.70;99.90;;;;;;5014980;28;20046;-81
2022/04/28 12:28:42;;;;;;;12.15;3.40;;;15.80;99.90;;;;;;4998423;28;20054;-84
2022/04/28 12:31:10;;;;;;;14.35;4.03;;;15.80;99.90;;;;;;5016175;28;20046;-82
2022/04/28 12:33:38;;;;;;;9.00;3.90;;;16.00;99.90;;;;;;5014531;28;20050;-81
2022/04/28 12:36:06;;;;;;;9.57;3.60;;;16.20;99.90;;;;;;4982568;28;20060;-82
2022/04/28 12:38:34;;;;;;;10.60;3.60;;;16.40;99.90;;;;;;5014165;28;20046;-80
2022/04/28 12:41:24;;;;;;;11.93;3.78;;;16.90;99.90;;;;;;5014792;28;20037;-82
2022/04/28 12:43:52;;;;;;;10.23;3.92;;;17.20;99.90;;;;;;5014392;28;20478;-82
2022/04/28 12:46:47;;;;;;;16.80;3.83;;;17.60;99.90;;;;;;5014144;28;20053;-82
2022/04/28 12:49:16;;;;;;;13.85;4.45;;;17.50;99.90;;;;;;4998307;28;20046;-81
2022/04/28 12:51:44;;;;;;;12.23;3.42;;;17.30;99.90;;;;;;5014859;28;20050;-83
2022/04/28 12:54:19;;;;;;;16.27;3.75;;;17.00;99.90;;;;;;5014191;28;20577;-82
2022/04/28 12:56:46;;;;;;;12.32;3.72;;;17.10;99.90;;;;;;4997586;28;20050;-81
2022/04/28 12:59:14;;;;;;;9.10;3.17;;;17.00;99.90;;;;;;5015179;28;20056;-83
2022/04/28 13:01:42;;;;;;;9.10;3.53;;;17.00;99.90;;;;;;5015302;28;20425;-81
2022/04/28 13:04:11;;;;;;;11.05;3.85;;;17.30;99.90;;;;;;5013980;28;20073;-84
2022/04/28 13:06:40;;;;;;;8.18;3.33;;;17.70;99.90;;;;;;5013821;28;20042;-83
2022/04/28 13:09:09;;;;;;;10.18;3.05;;;17.60;99.90;;;;;;5015026;28;20386;-81
2022/04/28 13:11:39;;;;;;;10.10;3.20;;;17.50;99.90;;;;;;5015456;28;20482;-81
2022/04/28 13:14:07;;;;;;;13.95;3.70;;;17.80;99.90;;;;;;5013676;28;20052;-83
2022/04/28 13:16:32;;;;;;;10.63;3.17;;;17.80;99.90;;;;;;5013480;28;20152;-83
2022/04/28 13:18:58;;;;;;;15.43;3.20;;;17.60;99.90;;;;;;5013403;28;20124;-82
2022/04/28 13:21:25;;;;;;;9.98;3.08;;;17.20;99.90;;;;;;5015102;28;20053;-81
2022/04/28 13:23:51;;;;;;;11.82;3.53;;;17.40;99.90;;;;;;5016162;28;20176;-79
2022/04/28 13:26:20;;;;;;;8.20;3.15;;;17.40;99.90;;;;;;5018565;28;20041;-81
2022/04/28 13:28:47;;;;;;;6.60;2.63;;;17.60;99.90;;;;;;5016783;28;20041;-82
2022/04/28 13:31:13;;;;;;;7.40;3.13;;;18.10;99.90;;;;;;5014997;28;20439;-81
2022/04/28 13:33:40;;;;;;;32.10;5.55;;;18.50;99.90;;;;;;5015345;28;20037;-84
2022/04/28 13:36:06;;;;;;;12.27;3.08;;;18.40;99.90;;;;;;5013410;28;20041;-80
2022/04/28 13:38:33;;;;;;;12.63;3.40;;;18.10;99.90;;;;;;5013548;28;20339;-81
2022/04/28 13:40:59;;;;;;;13.13;3.00;;;18.00;99.90;;;;;;5013491;28;20046;-81
2022/04/28 13:43:25;;;;;;;13.25;3.42;;;18.00;99.90;;;;;;5012786;28;20049;-83
2022/04/28 13:45:51;;;;;;;13.15;3.20;;;18.10;99.90;;;;;;5013586;28;20046;-83
2022/04/28 13:48:17;;;;;;;10.57;2.80;;;18.30;99.90;;;;;;5013601;28;20391;-84
2022/04/28 13:50:46;;;;;;;9.85;2.80;;;18.50;99.90;;;;;;5013339;28;20041;-82
2022/04/28 13:53:13;;;;;;;8.35;2.40;;;19.00;99.90;;;;;;5013379;28;20046;-83
2022/04/28 13:55:39;;;;;;;11.88;3.30;;;19.20;99.70;;;;;;5013044;28;20041;-80
2022/04/28 13:58:05;;;;;;;10.32;2.97;;;19.10;99.30;;;;;;5012618;28;20045;-82
2022/04/28 14:00:32;;;;;;;10.13;3.22;;;19.00;99.00;;;;;;5012813;28;20490;-81
2022/04/28 14:02:57;;;;;;;10.25;2.97;;;18.70;99.00;;;;;;5012955;28;20116;-83
2022/04/28 14:05:23;;;;;;;11.38;2.80;;;18.30;99.10;;;;;;5013602;28;20200;-83
2022/04/28 14:07:49;;;;;;;13.50;3.20;;;17.90;98.90;;;;;;4997868;28;20041;-80
2022/04/28 14:10:14;;;;;;;9.35;2.60;;;17.60;98.90;;;;;;5014232;28;20046;-83
2022/04/28 14:12:41;;;;;;;9.75;3.20;;;17.80;99.30;;;;;;5013344;28;20129;-82
2022/04/28 14:15:08;;;;;;;11.82;2.97;;;18.10;99.60;;;;;;5014271;28;20392;-81
2022/04/28 14:17:38;;;;;;;9.70;3.00;;;18.30;98.90;;;;;;5012582;28;20038;-79
2022/04/28 14:20:05;;;;;;;10.30;2.72;;;18.50;99.00;;;;;;5013804;28;20481;-79
2022/04/28 14:22:31;;;;;;;8.52;2.80;;;18.80;99.10;;;;;;5012339;28;20046;-74
2022/04/28 14:24:57;;;;;;;6.57;2.63;;;18.70;98.50;;;;;;5013864;28;20034;-73
2022/04/28 14:27:23;;;;;;;10.18;3.08;;;18.80;98.40;;;;;;5012049;28;20049;-75
2022/04/28 14:29:49;;;;;;;7.72;2.65;;;18.70;98.10;;;;;;5012616;28;20045;-83
2022/04/28 14:32:15;;;;;;;9.27;3.67;;;18.90;97.90;;;;;;5012331;28;20049;-81
2022/04/28 14:34:41;;;;;;;13.40;3.10;;;19.10;98.00;;;;;;5012345;28;20088;-81
2022/04/28 14:37:06;;;;;;;9.25;3.30;;;19.10;97.80;;;;;;5013603;28;20045;-81
2022/04/28 14:39:33;;;;;;;10.80;2.70;;;19.10;97.20;;;;;;5013603;28;20042;-81
2022/04/28 14:42:00;;;;;;;9.98;2.63;;;19.00;97.10;;;;;;5013892;28;20058;-80
2022/04/28 14:44:25;;;;;;;10.05;2.45;;;18.80;97.00;;;;;;5012364;28;20045;-79
2022/04/28 14:46:52;;;;;;;7.85;2.65;;;18.80;96.90;;;;;;4995772;28;20042;-78
2022/04/28 14:52:21;;;;;;;7.53;2.90;;;18.60;96.40;;;;;;4992513;28;20100;-78
2022/04/28 14:54:58;;;;;;;13.27;4.00;;;18.40;96.40;;;;;;4976885;28;20039;-77
2022/04/28 14:57:27;;;;;;;11.90;2.90;;;18.10;97.30;;;;;;4997660;28;20034;-80
2022/04/28 14:59:53;;;;;;;10.35;3.05;;;18.10;97.50;;;;;;4997821;28;20038;-79
2022/04/28 15:02:19;;;;;;;7.53;2.90;;;18.00;97.10;;;;;;4997359;28;20050;-77
2022/04/28 15:04:46;;;;;;;10.63;2.78;;;18.10;97.20;;;;;;4997605;28;20114;-78
2022/04/28 15:07:13;;;;;;;6.80;2.50;;;18.30;97.30;;;;;;4996555;28;20043;-79
2022/04/28 15:09:39;;;;;;;6.80;2.72;;;18.20;97.10;;;;;;4996611;28;20049;-78
2022/04/28 15:12:05;;;;;;;7.28;2.70;;;18.30;97.30;;;;;;4995710;28;20042;-78
2022/04/28 15:14:32;;;;;;;10.60;3.03;;;18.40;97.20;;;;;;4996327;28;20053;-79
2022/04/28 15:16:57;;;;;;;10.73;3.28;;;18.60;97.10;;;;;;4996034;28;20053;-80
2022/04/28 15:19:23;;;;;;;12.98;3.50;;;18.70;96.70;;;;;;4996083;28;20046;-79
2022/04/28 15:21:48;;;;;;;9.35;3.38;;;18.60;96.40;;;;;;4997121;28;20066;-79
2022/04/28 15:24:14;;;;;;;8.48;3.20;;;18.50;96.40;;;;;;4995872;28;20530;-79
2022/04/28 15:26:40;;;;;;;10.40;2.95;;;18.80;96.30;;;;;;4996171;28;20046;-79
2022/04/28 15:29:06;;;;;;;8.52;3.13;;;18.60;96.20;;;;;;4996026;28;20049;-79
2022/04/28 15:31:35;;;;;;;12.18;3.50;;;18.30;96.00;;;;;;4996558;28;20097;-79
2022/04/28 15:34:01;;;;;;;8.98;2.63;;;18.10;96.50;;;;;;4995830;28;20085;-80
2022/04/28 15:36:27;;;;;;;12.52;3.20;;;18.20;97.00;;;;;;4995735;28;20471;-80
2022/04/28 15:38:53;;;;;;;8.55;2.70;;;18.10;97.00;;;;;;4996685;28;20117;-77
2022/04/28 15:41:19;;;;;;;11.43;3.42;;;17.70;97.00;;;;;;4996521;28;20030;-82
2022/04/28 15:43:45;;;;;;;8.43;2.90;;;17.40;97.20;;;;;;4996712;28;20126;-79
2022/04/28 15:46:10;;;;;;;9.88;3.00;;;17.20;97.50;;;;;;4995542;28;20043;-79
2022/04/28 15:48:36;;;;;;;14.48;2.80;;;17.10;97.70;;;;;;4995640;28;20090;-84
2022/04/28 15:51:03;;;;;;;9.80;2.72;;;17.20;98.30;;;;;;4995985;28;20042;-78
2022/04/28 15:53:29;;;;;;;9.02;2.45;;;17.30;98.10;;;;;;4995126;28;20058;-81
2022/04/28 15:55:55;;;;;;;12.02;3.28;;;17.20;98.00;;;;;;4997714;28;20049;-85
2022/04/28 15:58:21;;;;;;;13.02;2.60;;;17.00;98.20;;;;;;4995993;28;20121;-81
2022/04/28 16:00:48;;;;;;;8.00;2.63;;;17.10;98.60;;;;;;4995077;28;20398;-81
2022/04/28 16:03:14;;;;;;;5.57;2.53;;;17.10;98.90;;;;;;4979455;28;20053;-83
2022/04/28 16:05:40;;;;;;;9.63;2.80;;;17.10;99.10;;;;;;4995417;28;20042;-85
2022/04/28 16:08:06;;;;;;;9.15;2.90;;;17.20;98.80;;;;;;4996836;28;20125;-85
2022/04/28 16:10:33;;;;;;;10.32;2.58;;;17.10;98.60;;;;;;4997022;28;20486;-83
2022/04/28 16:12:59;;;;;;;9.70;2.80;;;17.00;98.80;;;;;;4997408;28;20053;-85
2022/04/28 16:15:25;;;;;;;7.82;2.70;;;17.20;99.00;;;;;;4981102;28;20056;-86
2022/04/28 16:17:52;;;;;;;8.40;2.63;;;17.30;99.20;;;;;;4997927;28;20522;-86
2022/04/28 16:20:18;;;;;;;6.22;2.17;;;17.30;99.00;;;;;;4995661;28;20054;-85
2022/04/28 16:22:44;;;;;;;9.48;2.33;;;17.40;98.90;;;;;;4996119;28;20050;-86
2022/04/28 16:25:10;;;;;;;5.13;2.30;;;17.50;98.70;;;;;;4995219;28;20090;-84